Time;durP1;ratioP1;P1;durP2;ratioP2;P2;SDS_P1;SDS_P2;PMS_P1;PMS_P2;Temp;Humidity;BMP_temperature;BMP_pressure;BME280_temperature;BME280_humidity;BME280_pressure;Samples;Min_cycle;Max_cycle;Signal;HPM_P1;HPM_P2
2022/09/22 00:01:01;;;;;;;;;;;;;;;14.76;50.84;99602.22;4466119;32;34244;-86
2022/09/22 00:03:29;;;;;;;;;;;;;;;14.75;50.96;99603.09;4461394;32;35348;-84
2022/09/22 00:05:59;;;;;;;;;;;;;;;14.64;51.23;99597.81;4466637;32;34303;-86
2022/09/22 00:08:27;;;;;;;;;;;;;;;14.39;51.96;99603.78;4452697;32;34230;-83
2022/09/22 00:10:59;;;;;;;;;;;;;;;14.42;51.94;99602.06;4467230;32;34312;-85
2022/09/22 00:13:26;;;;;;;;;;;;;;;14.38;51.91;99602.91;4466196;32;34298;-85
2022/09/22 00:15:53;;;;;;;;;;;;;;;14.79;50.92;99599.63;4479940;32;33493;-85
2022/09/22 00:18:20;;;;;;;;;;;;;;;15.02;50.31;99597.06;4478066;32;34301;-85
2022/09/22 00:20:48;;;;;;;;;;;;;;;16.09;47.50;99593.53;4482423;32;35255;-85
2022/09/22 00:23:15;;;;;;;;;;;;;;;15.98;47.81;99597.03;4478799;32;33940;-85
2022/09/22 00:25:42;;;;;;;;;;;;;;;15.33;48.93;99600.56;4475588;32;34915;-94
2022/09/22 00:28:11;;;;;;;;;;;;;;;14.62;50.99;99598.69;4482634;32;35616;-85
2022/09/22 00:30:39;;;;;;;;;;;;;;;15.33;49.26;99597.94;4481874;32;34439;-87
2022/09/22 00:33:07;;;;;;;;;;;;;;;15.24;49.36;99595.34;4453131;32;34136;-85
2022/09/22 00:35:37;;;;;;;;;;;;;;;14.59;51.11;99586.50;4466695;32;34412;-85
2022/09/22 00:38:04;;;;;;;;;;;;;;;14.44;51.56;99591.66;4453350;32;33808;-93
2022/09/22 00:40:36;;;;;;;;;;;;;;;14.92;50.30;99592.66;4453003;32;34480;-85
2022/09/22 00:43:12;;;;;;;;;;;;;;;15.15;49.77;99590.09;4466816;32;35080;-91
2022/09/22 00:45:39;;;;;;;;;;;;;;;14.92;50.33;99585.69;4467058;32;33467;-85
2022/09/22 00:48:06;;;;;;;;;;;;;;;15.32;49.05;99588.38;4466701;32;34987;-86
2022/09/22 00:50:34;;;;;;;;;;;;;;;15.24;49.41;99588.38;4477283;32;34263;-85
2022/09/22 00:53:02;;;;;;;;;;;;;;;15.34;49.12;99581.37;4481647;32;34337;-85
2022/09/22 00:56:02;;;;;;;;;;;;;;;15.29;49.15;99580.53;4468160;32;34871;-85
2022/09/22 00:58:30;;;;;;;;;;;;;;;15.50;48.56;99577.94;4446262;32;34182;-86
2022/09/22 01:00:57;;;;;;;;;;;;;;;15.92;47.39;99573.53;4479210;32;35285;-93
2022/09/22 01:03:26;;;;;;;;;;;;;;;15.67;47.80;99574.44;4482509;32;34485;-90
2022/09/22 01:05:57;;;;;;;;;;;;;;;15.77;47.61;99578.81;4482319;32;34231;-93
2022/09/22 01:08:25;;;;;;;;;;;;;;;16.00;47.08;99573.53;4467983;32;34260;-87
2022/09/22 01:10:53;;;;;;;;;;;;;;;15.93;47.04;99570.03;4455726;32;34752;-85
2022/09/22 01:13:24;;;;;;;;;;;;;;;15.64;47.73;99571.81;4453880;32;34356;-85
2022/09/22 01:15:54;;;;;;;;;;;;;;;15.63;47.63;99577.91;4468754;32;33927;-94
2022/09/22 01:18:27;;;;;;;;;;;;;;;15.87;47.06;99567.44;4468883;32;33465;-85
2022/09/22 01:21:01;;;;;;;;;;;;;;;16.13;46.39;99563.88;4480513;32;34254;-86
2022/09/22 01:23:47;;;;;;;;;;;;;;;16.74;44.78;99566.25;4484607;32;34962;-86
2022/09/22 01:26:23;;;;;;;;;;;;;;;16.75;44.78;99565.38;4478565;32;32968;-89
2022/09/22 01:29:09;;;;;;;;;;;;;;;17.07;43.85;99559.06;4483999;32;35269;-86
2022/09/22 01:31:38;;;;;;;;;;;;;;;17.07;43.94;99552.06;4472978;32;35215;-85
2022/09/22 01:34:10;;;;;;;;;;;;;;;17.46;43.13;99548.25;4455350;32;34837;-87
2022/09/22 01:37:10;;;;;;;;;;;;;;;17.56;42.75;99558.66;4468192;32;33966;-87
2022/09/22 01:39:38;;;;;;;;;;;;;;;17.40;42.97;99565.78;4441583;32;34928;-86
2022/09/22 01:42:07;;;;;;;;;;;;;;;16.52;44.75;99562.88;4455353;32;34512;-85
2022/09/22 01:44:41;;;;;;;;;;;;;;;16.23;45.67;99576.06;4462969;32;35290;-87
2022/09/22 01:47:10;;;;;;;;;;;;;;;15.71;46.84;99573.56;4454260;32;33738;-93
2022/09/22 01:49:38;;;;;;;;;;;;;;;15.66;47.13;99573.59;4464693;32;34131;-84
2022/09/22 01:52:07;;;;;;;;;;;;;;;15.17;48.54;99577.91;4462348;32;35222;-85
2022/09/22 01:54:44;;;;;;;;;;;;;;;13.82;52.13;99583.47;4468610;32;35216;-96
2022/09/22 01:57:11;;;;;;;;;;;;;;;14.03;52.00;99580.16;4468705;32;33750;-85
2022/09/22 01:59:39;;;;;;;;;;;;;;;14.68;50.45;99577.84;4481034;32;33768;-85
2022/09/22 02:02:11;;;;;;;;;;;;;;;14.23;51.62;99569.81;4469245;32;33924;-84
2022/09/22 02:04:42;;;;;;;;;;;;;;;13.95;52.46;99574.03;4469727;32;35326;-90
2022/09/22 02:07:14;;;;;;;;;;;;;;;13.88;53.00;99583.53;4468886;32;33757;-84
2022/09/22 02:09:41;;;;;;;;;;;;;;;13.47;54.29;99570.22;4454336;32;34251;-94
2022/09/22 02:12:08;;;;;;;;;;;;;;;13.73;53.60;99570.41;4454036;32;34464;-84
2022/09/22 02:14:35;;;;;;;;;;;;;;;12.60;56.78;99572.84;4468314;32;35357;-84
2022/09/22 02:17:06;;;;;;;;;;;;;;;13.69;54.11;99573.00;4476061;32;33321;-85
2022/09/22 02:19:37;;;;;;;;;;;;;;;12.85;56.43;99571.41;4468179;32;34989;-85
2022/09/22 02:22:04;;;;;;;;;;;;;;;13.37;54.98;99568.41;4468471;32;34170;-85
2022/09/22 02:24:39;;;;;;;;;;;;;;;13.43;54.74;99571.06;4467592;32;34309;-85
2022/09/22 02:27:08;;;;;;;;;;;;;;;13.70;53.91;99579.94;4453654;32;34446;-87
2022/09/22 02:29:36;;;;;;;;;;;;;;;13.81;53.48;99579.13;4457629;32;34990;-87
2022/09/22 02:32:04;;;;;;;;;;;;;;;14.44;51.45;99562.94;4454209;32;34180;-85
2022/09/22 02:34:32;;;;;;;;;;;;;;;14.00;52.68;99569.69;4453897;32;34606;-88
2022/09/22 02:37:05;;;;;;;;;;;;;;;14.94;49.69;99560.50;4454126;32;33638;-95
2022/09/22 02:39:37;;;;;;;;;;;;;;;14.55;50.82;99561.28;4453783;32;35514;-85
2022/09/22 02:42:04;;;;;;;;;;;;;;;15.02;49.53;99563.97;4454238;32;33899;-86
2022/09/22 02:44:36;;;;;;;;;;;;;;;14.21;51.64;99565.47;4467849;32;34409;-86
2022/09/22 02:47:09;;;;;;;;;;;;;;;14.19;51.56;99560.22;4467787;32;34414;-94
2022/09/22 02:49:36;;;;;;;;;;;;;;;13.99;52.24;99569.69;4462925;32;33701;-84
2022/09/22 02:52:07;;;;;;;;;;;;;;;14.84;50.10;99570.03;4453720;32;34376;-85
2022/09/22 02:54:34;;;;;;;;;;;;;;;14.41;51.06;99558.59;4453433;32;34972;-86
2022/09/22 02:57:01;;;;;;;;;;;;;;;14.75;50.23;99571.75;4467862;32;34125;-85
2022/09/22 02:59:28;;;;;;;;;;;;;;;14.50;50.62;99561.25;4464433;32;34648;-86
2022/09/22 03:01:56;;;;;;;;;;;;;;;14.92;49.75;99562.22;4481105;32;35215;-84
2022/09/22 03:04:23;;;;;;;;;;;;;;;15.09;49.04;99554.41;4469412;32;34154;-94
2022/09/22 03:06:50;;;;;;;;;;;;;;;15.01;49.22;99562.25;4475276;32;33549;-85
2022/09/22 03:09:18;;;;;;;;;;;;;;;15.37;48.26;99560.50;4468078;32;33658;-85
2022/09/22 03:11:45;;;;;;;;;;;;;;;15.71;47.35;99550.03;4467986;32;34024;-85
2022/09/22 03:14:12;;;;;;;;;;;;;;;16.49;45.33;99545.41;4470476;31;34172;-86
2022/09/22 03:16:39;;;;;;;;;;;;;;;16.65;44.87;99550.56;4483666;31;34633;-84
2022/09/22 03:19:07;;;;;;;;;;;;;;;16.59;44.98;99550.59;4483750;32;33852;-85
2022/09/22 03:21:34;;;;;;;;;;;;;;;16.67;44.67;99554.94;4483948;32;33852;-93
2022/09/22 03:24:01;;;;;;;;;;;;;;;15.04;48.44;99562.25;4470542;32;34226;-86
2022/09/22 03:26:29;;;;;;;;;;;;;;;14.71;49.47;99560.44;4472003;32;33758;-85
2022/09/22 03:28:56;;;;;;;;;;;;;;;13.73;52.15;99572.16;4472018;32;34977;-85
2022/09/22 03:31:23;;;;;;;;;;;;;;;13.95;51.92;99566.19;4473936;32;35239;-91
2022/09/22 03:33:51;;;;;;;;;;;;;;;14.25;51.11;99560.28;4478967;32;35907;-89
2022/09/22 03:36:18;;;;;;;;;;;;;;;13.78;52.24;99566.09;4483150;32;33584;-86
2022/09/22 03:38:46;;;;;;;;;;;;;;;13.77;52.25;99569.56;4468651;32;33036;-84
2022/09/22 03:41:13;;;;;;;;;;;;;;;14.55;50.46;99567.37;4471418;32;35120;-85
2022/09/22 03:43:40;;;;;;;;;;;;;;;14.18;51.49;99560.22;4482296;32;34301;-84
2022/09/22 03:46:08;;;;;;;;;;;;;;;13.78;52.44;99570.44;4481527;31;33537;-83
2022/09/22 03:48:35;;;;;;;;;;;;;;;13.62;52.89;99562.50;4467592;32;34977;-85
2022/09/22 03:51:02;;;;;;;;;;;;;;;13.53;53.33;99559.87;4481735;32;35285;-85
2022/09/22 03:53:30;;;;;;;;;;;;;;;13.05;54.51;99555.09;4468025;32;34562;-84
2022/09/22 03:56:23;;;;;;;;;;;;;;;12.99;55.00;99565.44;4479329;32;33732;-84
2022/09/22 03:58:50;;;;;;;;;;;;;;;13.56;53.45;99554.69;4465100;32;34655;-82
2022/09/22 04:01:18;;;;;;;;;;;;;;;13.70;53.19;99561.69;4471575;32;34279;-84
2022/09/22 04:03:45;;;;;;;;;;;;;;;13.10;54.83;99556.88;4467368;32;35232;-84
2022/09/22 04:08:59;;;;;;;;;;;;;;;13.23;54.42;99557.00;4480633;32;34765;-86
2022/09/22 04:11:26;;;;;;;;;;;;;;;13.28;54.46;99563.12;4482846;32;34253;-85
2022/09/22 04:13:53;;;;;;;;;;;;;;;13.85;52.58;99553.97;4482942;32;34001;-85
2022/09/22 04:16:21;;;;;;;;;;;;;;;13.62;53.32;99559.91;4473428;32;33510;-84
2022/09/22 04:18:49;;;;;;;;;;;;;;;13.81;52.58;99560.03;4474398;32;34175;-83
2022/09/22 04:21:16;;;;;;;;;;;;;;;13.91;52.27;99554.03;4481402;32;35343;-83
2022/09/22 04:23:46;;;;;;;;;;;;;;;13.94;52.11;99551.44;4466277;32;34149;-83
2022/09/22 04:26:13;;;;;;;;;;;;;;;13.29;53.79;99557.91;4466428;32;34505;-83
2022/09/22 04:28:40;;;;;;;;;;;;;;;13.50;53.54;99562.44;4467031;32;33770;-85
2022/09/22 04:31:08;;;;;;;;;;;;;;;13.45;53.75;99566.75;4465930;32;34334;-84
2022/09/22 04:33:35;;;;;;;;;;;;;;;12.95;55.12;99563.66;4465580;32;35295;-94
2022/09/22 04:36:02;;;;;;;;;;;;;;;13.23;54.30;99564.81;4466177;32;33342;-85
2022/09/22 04:38:30;;;;;;;;;;;;;;;13.62;53.42;99572.06;4472619;32;35005;-85
2022/09/22 04:40:57;;;;;;;;;;;;;;;13.69;52.99;99570.38;4482262;32;34420;-84
2022/09/22 04:43:24;;;;;;;;;;;;;;;13.23;54.25;99570.00;4472250;32;34475;-85
2022/09/22 04:45:52;;;;;;;;;;;;;;;13.37;54.09;99569.31;4475685;32;33684;-85
2022/09/22 04:48:19;;;;;;;;;;;;;;;13.43;53.94;99573.66;4479445;32;34895;-86
2022/09/22 04:50:46;;;;;;;;;;;;;;;13.98;52.61;99567.94;4464701;32;34312;-84
2022/09/22 04:53:15;;;;;;;;;;;;;;;13.16;54.39;99576.88;4476640;32;34515;-94
2022/09/22 04:55:42;;;;;;;;;;;;;;;13.58;53.39;99573.78;4473890;32;33318;-85
2022/09/22 04:58:09;;;;;;;;;;;;;;;14.09;52.46;99566.25;4474773;31;33894;-84
2022/09/22 05:00:37;;;;;;;;;;;;;;;14.35;51.43;99568.97;4476300;32;33859;-93
2022/09/22 05:03:08;;;;;;;;;;;;;;;14.85;49.95;99568.31;4469084;32;34496;-94
2022/09/22 05:05:35;;;;;;;;;;;;;;;14.27;51.30;99568.09;4475154;32;33628;-93
2022/09/22 05:08:03;;;;;;;;;;;;;;;14.07;51.85;99568.00;4470928;32;33763;-87
2022/09/22 05:10:33;;;;;;;;;;;;;;;15.20;48.82;99559.66;4480518;32;34384;-87
2022/09/22 05:13:00;;;;;;;;;;;;;;;13.86;51.83;99574.84;4469260;32;34052;-91
2022/09/22 05:15:31;;;;;;;;;;;;;;;14.41;50.75;99561.19;4482809;32;33308;-86
2022/09/22 05:17:58;;;;;;;;;;;;;;;14.44;50.68;99555.12;4468734;32;34124;-86
2022/09/22 05:20:25;;;;;;;;;;;;;;;14.29;51.06;99563.75;4471305;32;35275;-93
2022/09/22 05:22:53;;;;;;;;;;;;;;;13.84;52.46;99573.09;4468656;32;33675;-85
2022/09/22 05:25:20;;;;;;;;;;;;;;;13.02;54.73;99568.06;4470472;32;33650;-86
2022/09/22 05:27:51;;;;;;;;;;;;;;;13.87;52.94;99570.50;4483229;32;33841;-85
2022/09/22 05:30:20;;;;;;;;;;;;;;;13.88;52.87;99561.81;4468558;32;34516;-89
2022/09/22 05:32:47;;;;;;;;;;;;;;;14.03;52.42;99561.91;4478029;31;35338;-88
2022/09/22 05:35:15;;;;;;;;;;;;;;;14.69;50.79;99556.09;4475376;32;33491;-85
2022/09/22 05:37:44;;;;;;;;;;;;;;;14.31;51.67;99562.00;4459621;32;34678;-88
2022/09/22 05:40:12;;;;;;;;;;;;;;;15.22;49.43;99560.50;4469264;32;34348;-86
2022/09/22 05:42:41;;;;;;;;;;;;;;;15.40;48.84;99563.12;4469401;32;34320;-86
2022/09/22 05:45:09;;;;;;;;;;;;;;;15.65;48.38;99561.41;4468680;32;34397;-85
2022/09/22 05:47:36;;;;;;;;;;;;;;;15.23;49.00;99562.25;4454486;32;34315;-85
2022/09/22 05:50:04;;;;;;;;;;;;;;;14.67;50.94;99568.28;4468746;32;34354;-84
2022/09/22 05:52:31;;;;;;;;;;;;;;;15.27;49.48;99569.22;4468539;32;35499;-85
2022/09/22 05:54:58;;;;;;;;;;;;;;;15.80;48.18;99570.97;4469030;32;34366;-84
2022/09/22 05:57:26;;;;;;;;;;;;;;;15.66;48.40;99568.34;4469913;32;34354;-85
2022/09/22 05:59:53;;;;;;;;;;;;;;;15.47;48.83;99567.47;4468993;32;34325;-87
2022/09/22 06:02:22;;;;;;;;;;;;;;;15.74;48.48;99576.19;4469010;32;34381;-88
2022/09/22 06:04:53;;;;;;;;;;;;;;;16.03;47.55;99565.66;4470182;32;34163;-92
2022/09/22 06:07:22;;;;;;;;;;;;;;;15.75;48.28;99572.69;4469193;32;34767;-88
2022/09/22 06:09:50;;;;;;;;;;;;;;;15.63;48.79;99575.28;4470050;32;35165;-85
2022/09/22 06:12:17;;;;;;;;;;;;;;;15.66;48.87;99572.72;4470453;32;34596;-94
2022/09/22 06:14:44;;;;;;;;;;;;;;;16.04;47.81;99570.88;4469614;32;33781;-85
2022/09/22 06:17:11;;;;;;;;;;;;;;;15.16;50.13;99581.41;4468670;32;34026;-84
2022/09/22 06:19:39;;;;;;;;;;;;;;;15.43;49.70;99584.03;4468994;32;34117;-93
2022/09/22 06:22:07;;;;;;;;;;;;;;;15.10;50.31;99584.88;4468101;32;34252;-92
2022/09/22 06:24:34;;;;;;;;;;;;;;;15.37;49.91;99585.75;4454226;32;34409;-85
2022/09/22 06:27:02;;;;;;;;;;;;;;;16.32;47.57;99583.88;4467985;32;33777;-92
2022/09/22 06:29:29;;;;;;;;;;;;;;;15.75;48.74;99583.16;4468813;32;34930;-84
2022/09/22 06:31:56;;;;;;;;;;;;;;;16.53;47.14;99578.53;4468110;32;34995;-85
2022/09/22 06:34:25;;;;;;;;;;;;;;;15.32;49.81;99584.03;4468100;32;34299;-85
2022/09/22 06:36:56;;;;;;;;;;;;;;;16.32;47.93;99590.84;4468519;32;33917;-85
2022/09/22 06:39:23;;;;;;;;;;;;;;;16.60;47.65;99583.75;4468139;32;34866;-90
2022/09/22 06:41:50;;;;;;;;;;;;;;;16.02;48.71;99583.13;4468449;32;34861;-85
2022/09/22 06:44:17;;;;;;;;;;;;;;;15.96;48.60;99588.34;4468242;32;32707;-85
2022/09/22 06:46:45;;;;;;;;;;;;;;;16.40;47.49;99587.34;4468154;32;33854;-85
2022/09/22 06:49:12;;;;;;;;;;;;;;;16.75;46.50;99586.34;4468199;32;33908;-85
2022/09/22 06:51:39;;;;;;;;;;;;;;;16.03;48.82;99581.37;4468441;32;34095;-86
2022/09/22 06:54:07;;;;;;;;;;;;;;;16.47;47.54;99581.19;4468464;32;33484;-85
2022/09/22 06:56:36;;;;;;;;;;;;;;;16.90;46.60;99585.38;4467980;32;34268;-92
2022/09/22 06:59:09;;;;;;;;;;;;;;;17.19;46.09;99583.41;4454378;32;34856;-86
2022/09/22 07:01:44;;;;;;;;;;;;;;;16.85;47.09;99589.75;4456210;32;34523;-87
2022/09/22 07:04:12;;;;;;;;;;;;;;;17.08;46.39;99595.72;4468254;32;34249;-85
2022/09/22 07:06:39;;;;;;;;;;;;;;;16.94;47.50;99593.19;4453504;32;33909;-87
2022/09/22 07:09:08;;;;;;;;;;;;;;;17.00;46.61;99590.53;4468273;32;35038;-85
2022/09/22 07:11:36;;;;;;;;;;;;;;;16.47;48.44;99591.66;4467534;32;35243;-93
2022/09/22 07:14:07;;;;;;;;;;;;;;;16.36;48.72;99582.97;4468147;32;34232;-85
2022/09/22 07:16:35;;;;;;;;;;;;;;;16.94;46.95;99587.97;4467759;32;33954;-84
2022/09/22 07:19:03;;;;;;;;;;;;;;;16.70;47.88;99590.66;4467900;32;34392;-85
2022/09/22 07:21:36;;;;;;;;;;;;;;;17.34;46.35;99584.16;4467869;32;34377;-84
2022/09/22 07:24:04;;;;;;;;;;;;;;;16.77;48.27;99584.56;4467616;32;34427;-85
2022/09/22 07:26:32;;;;;;;;;;;;;;;17.30;46.82;99585.06;4467740;32;33898;-91
2022/09/22 07:29:00;;;;;;;;;;;;;;;16.21;49.28;99589.16;4467951;32;34053;-84
2022/09/22 07:31:29;;;;;;;;;;;;;;;16.75;48.25;99586.34;4468181;32;34826;-85
2022/09/22 07:33:59;;;;;;;;;;;;;;;16.84;48.73;99588.03;4467932;32;33514;-88
2022/09/22 07:36:30;;;;;;;;;;;;;;;16.74;48.40;99589.81;4467849;32;35104;-85
2022/09/22 07:39:01;;;;;;;;;;;;;;;17.27;47.67;99588.59;4467907;32;33827;-85
2022/09/22 07:41:29;;;;;;;;;;;;;;;18.05;45.41;99587.91;4453655;32;34576;-86
2022/09/22 07:45:11;;;;;;;;;;;;;;;17.60;46.36;99590.06;4453720;32;34237;-84
2022/09/22 07:46:48;;;;;;;;;;;;;;;16.90;48.51;99591.47;4456040;32;34209;-84
2022/09/22 07:49:18;;;;;;;;;;;;;;;17.16;48.25;99599.16;4466976;32;34435;-89
2022/09/22 07:51:45;;;;;;;;;;;;;;;16.60;48.86;99599.47;4468071;32;34283;-93
2022/09/22 07:54:12;;;;;;;;;;;;;;;18.01;44.83;99596.69;4468321;32;34180;-85
2022/09/22 07:56:43;;;;;;;;;;;;;;;17.33;46.49;99598.16;4467519;32;34318;-84
2022/09/22 07:59:11;;;;;;;;;;;;;;;17.75;45.39;99599.56;4453455;32;34179;-85
2022/09/22 08:01:47;;;;;;;;;;;;;;;17.79;45.57;99598.66;4467445;32;34308;-85
2022/09/22 08:04:17;;;;;;;;;;;;;;;18.03;45.20;99589.66;4467389;32;33524;-92
2022/09/22 08:06:45;;;;;;;;;;;;;;;18.11;44.97;99594.84;4453455;32;33722;-83
2022/09/22 08:09:12;;;;;;;;;;;;;;;17.35;46.38;99599.00;4467669;32;34567;-84
2022/09/22 08:11:47;;;;;;;;;;;;;;;18.12;44.63;99588.72;4467513;32;35266;-85
2022/09/22 08:14:20;;;;;;;;;;;;;;;18.52;44.06;99604.84;4454596;32;33234;-84
2022/09/22 08:16:50;;;;;;;;;;;;;;;18.34;44.26;99591.97;4468131;32;33909;-85
2022/09/22 08:19:17;;;;;;;;;;;;;;;18.52;44.12;99585.59;4467292;32;35220;-84
2022/09/22 08:21:45;;;;;;;;;;;;;;;18.67;43.01;99588.03;4466034;32;34346;-85
2022/09/22 08:24:20;;;;;;;;;;;;;;;19.19;42.66;99593.44;4453540;32;33729;-84
2022/09/22 08:26:51;;;;;;;;;;;;;;;18.45;43.11;99598.81;4467091;32;34210;-84
2022/09/22 08:29:19;;;;;;;;;;;;;;;16.96;45.31;99604.50;4467354;32;34134;-84
2022/09/22 08:31:47;;;;;;;;;;;;;;;17.18;45.52;99613.09;4467633;32;35251;-84
2022/09/22 08:34:16;;;;;;;;;;;;;;;17.84;44.94;99604.75;4467082;32;34421;-85
2022/09/22 08:36:45;;;;;;;;;;;;;;;18.05;44.21;99597.53;4466924;32;34241;-84
2022/09/22 08:39:12;;;;;;;;;;;;;;;17.23;46.15;99595.59;4467042;32;34246;-93
2022/09/22 08:42:04;;;;;;;;;;;;;;;17.78;44.93;99603.94;4466959;32;35274;-85
2022/09/22 08:44:37;;;;;;;;;;;;;;;18.36;44.22;99588.41;4467054;32;33412;-85
2022/09/22 08:47:04;;;;;;;;;;;;;;;18.05;44.56;99592.28;4452785;32;33685;-95
2022/09/22 08:52:26;;;;;;;;;;;;;;;18.78;43.33;99590.53;4466971;32;34559;-86
2022/09/22 08:54:55;;;;;;;;;;;;;;;19.12;41.88;99588.28;4466939;32;34151;-85
2022/09/22 08:57:23;;;;;;;;;;;;;;;19.57;40.59;99577.94;4452989;32;34304;-85
2022/09/22 09:00:11;;;;;;;;;;;;;;;19.67;40.65;99572.53;4466863;32;34340;-85
2022/09/22 09:02:40;;;;;;;;;;;;;;;20.00;40.34;99582.44;4452612;32;35176;-85
2022/09/22 09:05:26;;;;;;;;;;;;;;;19.75;39.46;99576.78;4466563;32;34390;-96
2022/09/22 09:08:20;;;;;;;;;;;;;;;19.86;39.65;99575.69;4466557;32;34161;-85
2022/09/22 09:11:07;;;;;;;;;;;;;;;19.90;38.22;99580.00;4442865;32;34210;-84
2022/09/22 09:13:39;;;;;;;;;;;;;;;20.21;39.02;99582.03;4466612;32;34317;-96
2022/09/22 09:16:09;;;;;;;;;;;;;;;20.02;39.55;99585.94;4466763;32;33408;-88
2022/09/22 09:18:38;;;;;;;;;;;;;;;20.00;40.08;99582.44;4466475;32;33951;-85
2022/09/22 09:21:06;;;;;;;;;;;;;;;19.61;40.23;99574.34;4452542;32;34403;-85
2022/09/22 09:23:36;;;;;;;;;;;;;;;19.20;40.64;99583.78;4439921;32;35232;-92
2022/09/22 09:26:24;;;;;;;;;;;;;;;19.69;39.35;99583.88;4466206;32;33364;-85
2022/09/22 09:28:54;;;;;;;;;;;;;;;19.36;38.72;99584.44;4452423;32;34326;-84
2022/09/22 09:31:31;;;;;;;;;;;;;;;19.50;39.83;99576.28;4452252;32;34443;-85
2022/09/22 09:34:06;;;;;;;;;;;;;;;20.00;38.62;99582.44;4467353;32;35159;-89
2022/09/22 09:36:36;;;;;;;;;;;;;;;20.02;37.94;99576.25;4454512;32;33654;-85
2022/09/22 09:39:11;;;;;;;;;;;;;;;20.99;34.04;99583.03;4454516;32;34268;-94
2022/09/22 09:41:38;;;;;;;;;;;;;;;20.46;34.50;99573.66;4454394;32;35656;-93
2022/09/22 09:44:06;;;;;;;;;;;;;;;20.10;36.48;99573.47;4468813;32;34700;-84
2022/09/22 09:46:42;;;;;;;;;;;;;;;19.71;35.61;99581.22;4468593;32;34008;-93
2022/09/22 09:49:14;;;;;;;;;;;;;;;20.31;35.53;99580.09;4468367;32;34137;-85
2022/09/22 09:51:45;;;;;;;;;;;;;;;21.04;33.68;99582.94;4454826;32;34586;-86
2022/09/22 09:54:14;;;;;;;;;;;;;;;20.87;34.22;99581.56;4454531;32;35244;-85
2022/09/22 09:57:02;;;;;;;;;;;;;;;19.44;36.93;99588.66;4468888;32;33679;-85
2022/09/22 10:02:47;;;;;;;;;;;;;;;20.78;35.57;99579.09;4444799;32;35027;-86
2022/09/22 10:05:14;;;;;;;;;;;;;;;21.05;34.11;99574.09;4454588;32;34472;-94
2022/09/22 10:07:45;;;;;;;;;;;;;;;21.58;33.85;99577.25;4468631;32;33433;-86
2022/09/22 10:10:27;;;;;;;;;;;;;;;21.91;33.97;99566.72;4468313;32;34194;-86
2022/09/22 10:13:15;;;;;;;;;;;;;;;21.78;34.16;99569.69;4468590;32;34457;-92
2022/09/22 10:15:44;;;;;;;;;;;;;;;22.13;33.80;99570.50;4467953;32;34610;-85
2022/09/22 10:18:24;;;;;;;;;;;;;;;21.66;33.69;99580.53;4454257;32;33998;-86
2022/09/22 10:21:01;;;;;;;;;;;;;;;21.93;34.00;99573.66;4468607;32;33832;-86
2022/09/22 10:23:31;;;;;;;;;;;;;;;22.43;31.88;99565.28;4468236;32;34357;-94
2022/09/22 10:26:13;;;;;;;;;;;;;;;20.63;35.45;99577.66;4468090;32;35217;-85
2022/09/22 10:28:41;;;;;;;;;;;;;;;21.96;32.97;99570.09;4468007;32;34320;-85
2022/09/22 10:31:18;;;;;;;;;;;;;;;21.83;33.26;99582.75;4468183;32;35092;-91
2022/09/22 10:33:56;;;;;;;;;;;;;;;21.84;33.12;99577.41;4454303;32;33800;-84
2022/09/22 10:36:25;;;;;;;;;;;;;;;19.92;36.24;99580.81;4468111;32;35162;-86
2022/09/22 10:38:53;;;;;;;;;;;;;;;20.75;37.26;99579.16;4468088;32;34278;-85
2022/09/22 10:41:30;;;;;;;;;;;;;;;20.30;36.17;99570.44;4454942;32;34052;-95
2022/09/22 10:43:59;;;;;;;;;;;;;;;21.40;34.63;99570.62;4453888;32;34694;-86
2022/09/22 10:46:49;;;;;;;;;;;;;;;21.81;33.58;99556.38;4455811;32;35146;-93
2022/09/22 10:49:24;;;;;;;;;;;;;;;21.56;34.56;99563.25;4468049;32;34484;-86
2022/09/22 10:51:55;;;;;;;;;;;;;;;21.98;33.21;99561.22;4454250;32;33920;-93
2022/09/22 10:54:32;;;;;;;;;;;;;;;21.98;33.42;99555.09;4467816;32;34381;-85
2022/09/22 10:57:08;;;;;;;;;;;;;;;20.31;35.13;99557.25;4467970;32;34482;-85
2022/09/22 10:59:36;;;;;;;;;;;;;;;21.72;32.81;99543.44;4454645;32;33527;-85
2022/09/22 11:02:18;;;;;;;;;;;;;;;22.14;33.12;99550.25;4468142;32;33998;-95
2022/09/22 11:04:51;;;;;;;;;;;;;;;21.90;31.51;99542.09;4468302;32;34440;-85
2022/09/22 11:13:19;;;;;;;;;;;;;;;20.71;33.66;99540.62;4456574;32;34337;-84
2022/09/22 11:15:56;;;;;;;;;;;;;;;21.70;32.27;99526.78;4468045;32;34402;-85
2022/09/22 11:18:32;;;;;;;;;;;;;;;21.19;33.97;99528.97;4468441;32;35114;-85
2022/09/22 11:21:09;;;;;;;;;;;;;;;22.19;32.10;99532.50;4468315;32;34339;-84
2022/09/22 11:23:46;;;;;;;;;;;;;;;22.02;32.75;99525.03;4454403;32;33594;-94
2022/09/22 11:26:20;;;;;;;;;;;;;;;22.15;33.07;99518.53;4454580;32;34970;-86
2022/09/22 11:28:59;;;;;;;;;;;;;;;22.10;33.56;99517.75;4468567;32;34039;-89
2022/09/22 11:31:29;;;;;;;;;;;;;;;21.77;33.15;99515.16;4454446;32;33621;-85
2022/09/22 11:34:00;;;;;;;;;;;;;;;22.10;32.92;99513.34;4468150;32;33924;-85
2022/09/22 11:36:47;;;;;;;;;;;;;;;22.07;32.73;99515.22;4453762;32;34086;-85
2022/09/22 11:39:37;;;;;;;;;;;;;;;23.15;30.25;99511.06;4467733;32;34342;-85
2022/09/22 11:42:08;;;;;;;;;;;;;;;23.35;31.34;99506.88;4453982;32;33213;-85
2022/09/22 11:44:35;;;;;;;;;;;;;;;23.21;30.45;99499.41;4467765;32;33870;-86
2022/09/22 11:47:21;;;;;;;;;;;;;;;23.35;31.48;99493.66;4467445;32;35086;-87
2022/09/22 11:49:54;;;;;;;;;;;;;;;21.22;33.05;99499.91;4468005;32;34715;-85
2022/09/22 11:52:42;;;;;;;;;;;;;;;21.83;32.27;99483.31;4467892;32;33664;-95
2022/09/22 11:55:16;;;;;;;;;;;;;;;23.01;30.16;99479.78;4453533;32;34403;-85
2022/09/22 11:57:45;;;;;;;;;;;;;;;22.06;32.03;99482.66;4467902;32;34406;-85
2022/09/22 12:00:16;;;;;;;;;;;;;;;22.58;31.46;99480.28;4467562;32;34580;-85
2022/09/22 12:02:45;;;;;;;;;;;;;;;22.98;30.65;99479.00;4468235;32;33693;-85
2022/09/22 12:05:19;;;;;;;;;;;;;;;22.40;30.85;99478.19;4467683;32;33633;-86
2022/09/22 12:07:49;;;;;;;;;;;;;;;22.27;30.14;99470.62;4453332;32;35198;-96
2022/09/22 12:10:30;;;;;;;;;;;;;;;22.19;29.93;99475.25;4453126;32;35313;-85
2022/09/22 12:12:57;;;;;;;;;;;;;;;22.21;30.14;99478.75;4453459;32;33090;-85
2022/09/22 12:15:40;;;;;;;;;;;;;;;22.34;31.18;99474.81;4467425;32;35108;-85
2022/09/22 12:18:09;;;;;;;;;;;;;;;22.78;30.75;99475.22;4453597;32;34166;-84
2022/09/22 12:20:40;;;;;;;;;;;;;;;22.20;31.68;99466.47;4467511;32;35326;-93
2022/09/22 12:23:07;;;;;;;;;;;;;;;21.26;32.80;99489.22;4453774;32;33398;-85
2022/09/22 12:25:49;;;;;;;;;;;;;;;21.23;32.68;99483.16;4467155;32;33880;-95
2022/09/22 12:28:25;;;;;;;;;;;;;;;21.71;32.91;99481.03;4453962;32;35091;-96
2022/09/22 12:30:55;;;;;;;;;;;;;;;22.67;34.36;99485.25;4454452;32;34428;-95
2022/09/22 12:33:23;;;;;;;;;;;;;;;22.63;35.66;99480.97;4467953;32;33651;-85
2022/09/22 12:35:51;;;;;;;;;;;;;;;22.28;34.10;99475.00;4440815;32;34996;-95
2022/09/22 12:38:19;;;;;;;;;;;;;;;22.34;36.25;99482.72;4469528;32;35288;-85
2022/09/22 12:40:47;;;;;;;;;;;;;;;22.69;37.77;99486.09;4454079;32;35177;-86
2022/09/22 12:43:16;;;;;;;;;;;;;;;23.05;37.65;99489.34;4468690;32;33936;-86
2022/09/22 12:45:43;;;;;;;;;;;;;;;22.77;36.22;99488.50;4454410;32;34076;-85
2022/09/22 12:48:11;;;;;;;;;;;;;;;23.00;36.21;99482.47;4467536;32;34377;-86
2022/09/22 12:50:39;;;;;;;;;;;;;;;20.95;36.93;99486.50;4467608;32;35370;-95
2022/09/22 12:53:10;;;;;;;;;;;;;;;20.35;38.07;99489.59;4453744;32;34604;-85
2022/09/22 12:55:38;;;;;;;;;;;;;;;21.54;35.49;99481.47;4453665;32;34053;-96
2022/09/22 12:58:17;;;;;;;;;;;;;;;21.99;35.81;99474.97;4453495;32;35171;-85
2022/09/22 13:00:45;;;;;;;;;;;;;;;22.62;33.83;99473.13;4442683;32;783263;-86
2022/09/22 13:03:35;;;;;;;;;;;;;;;21.91;35.00;99471.69;4453692;32;33615;-87
2022/09/22 13:06:21;;;;;;;;;;;;;;;22.29;33.66;99466.16;4437609;32;33863;-85
2022/09/22 13:08:51;;;;;;;;;;;;;;;21.29;35.37;99469.78;4467417;32;34371;-85
2022/09/22 13:11:19;;;;;;;;;;;;;;;20.60;37.68;99474.13;4468916;32;34979;-96
2022/09/22 13:13:47;;;;;;;;;;;;;;;21.14;37.24;99476.34;4455185;32;32628;-94
2022/09/22 13:16:14;;;;;;;;;;;;;;;20.84;36.34;99470.94;4454644;32;35086;-86
2022/09/22 13:18:42;;;;;;;;;;;;;;;20.36;37.51;99470.25;4468451;32;34453;-85
2022/09/22 13:21:12;;;;;;;;;;;;;;;21.16;36.07;99469.25;4469150;32;35293;-85